Steptoe Valley North, Nevada Weather observations

Data are for 10 minute period ending at time listed.
 Day   Time   Solar   Ave.   Ave.  Ave.  Vector  Max.   Baro.   Total    
  of    of     Rad.   Air    Rel.  Wind   Wind   Wind  Press.  Precip.   
Year   Day            Temp.  Hum.  Speed  Dir.   Gust                    
2015   (PST)  Kw/m2    F      %     mph   deg.    mph    mb.     in.     
-------------------------------------------------------------------------
  58    0:00   0.00   25.6    81    0.6    34     2.1   815.1    0.00 
  58    0:10   0.00   24.6    82    1.2   358     6.0   815.0    0.00 
  58    0:20   0.00   24.4    86    3.9   158     6.6   815.0    0.00 
  58    0:30   0.00   25.0    85    1.7    30     3.9   815.0    0.00 
  58    0:40   0.00   25.6    84    1.9    26     5.0   815.0    0.00 
  58    0:50   0.00   26.5    82    0.3    31     1.4   814.9    0.00 
  58    1:00   0.00   26.8    80    3.0    56     4.4   814.9    0.00 
  58    1:10   0.00   28.0    76    1.1   100     3.1   814.7    0.00 
  58    1:20   0.00   26.7    79    0.9   350     2.1   814.6    0.00 
  58    1:30   0.00   26.5    80    1.1    60     2.4   814.5    0.00 
  58    1:40   0.00   26.3    80    1.7    69     2.3   814.3    0.00 
  58    1:50   0.00   26.3    79    1.6   350     4.9   814.4    0.00 
  58    2:00   0.00   24.0    83    2.4   338     3.7   814.4    0.00 
  58    2:10   0.00   23.9    83    2.7     7     3.9   814.3    0.00 
  58    2:20   0.00   23.0    86    2.8    26     4.2   814.3    0.00 
  58    2:30   0.00   23.8    86    0.3    30     1.8   814.3    0.00 
  58    2:40   0.00   23.5    86    2.7   198     3.9   814.1    0.00 
  58    2:50   0.00   23.4    87    2.4   151     3.1   813.9    0.00 
  58    3:00   0.00   23.7    87    1.2   143     2.0   813.9    0.00 
  58    3:10   0.00   24.6    86    0.7   143     1.8   813.8    0.00 
  58    3:20   0.00   23.9    85    2.2   339     3.7   813.8    0.00 
  58    3:30   0.00   22.9    87    1.3   338     2.0   813.7    0.00 
  58    3:40   0.00   22.6    87    1.9   355     3.6   813.5    0.00 
  58    3:50   0.00   22.3    88    3.1    26     3.9   813.6    0.00 
  58    4:00   0.00   22.8    88    2.5    16     3.7   813.6    0.00 
  58    4:10   0.00   23.3    88    0.4    22     1.2   813.4    0.00 
  58    4:20   0.00   23.6    88    0.5    25     2.2   813.4    0.00 
  58    4:30   0.00   23.7    87    0.7    25     2.3   813.2    0.00 
  58    4:40   0.00   23.3    87    2.2   132     3.0   813.1    0.00 
  58    4:50   0.00   22.7    87    3.0   189     4.8   813.1    0.00 
  58    5:00   0.00   22.3    87    3.7   216     4.5   813.0    0.00 
  58    5:10   0.00   22.1    86    2.0   203     3.2   812.9    0.00 
  58    5:20   0.00   21.2    86    3.2   165     4.5   812.8    0.00 
  58    5:30   0.00   20.3    87    5.3   147     6.8   812.7    0.00 
  58    5:40   0.00   21.4    89    5.9   105     8.1   812.8    0.00 
  58    5:50   0.00   22.7    86    4.5   106     8.1   812.8    0.00 
  58    6:00   0.00   23.8    82    5.7   182     9.6   812.8    0.00 
  58    6:10   0.00   23.5    81    5.1   160     8.9   812.8    0.00 
  58    6:20   0.00   22.4    83    5.3   126     7.1   812.8    0.00 
  58    6:30   0.01   22.9    82    5.9   161     8.5   812.8    0.00 
  58    6:40   0.06   23.9    80    4.1   167     5.6   812.8    0.00 
  58    6:50   0.04   23.6    79    4.9   259     7.3   812.9    0.00 
  58    7:00   0.03   22.4    82    2.2   263     4.9   813.0    0.00 
  58    7:10   0.05   22.4    83    2.9   119     4.0   812.9    0.00 
  58    7:20   0.14   23.3    84    4.4   122     6.1   812.8    0.00 
  58    7:30   0.14   23.9    84    5.8   109     6.9   812.9    0.00 
  58    7:40   0.14   25.5    84    5.5   131     7.1   813.0    0.00 
  58    7:50   0.12   26.8    82    5.3   138     7.7   813.0    0.00 
  58    8:00   0.11   27.6    78    4.2   157     6.6   813.0    0.00 
  58    8:10   0.12   28.2    75    4.1   190     5.2   813.0    0.00 
  58    8:20   0.12   28.3    75    3.7   215     4.9   813.0    0.00 
  58    8:30   0.14   29.2    74    3.1   185     4.8   813.0    0.00 
  58    8:40   0.39   32.0    67    4.7   186     7.2   812.9    0.00 
  58    8:50   0.47   34.0    62    5.0   186     7.5   812.8    0.00 
  58    9:00   0.50   34.5    59    4.6   182     7.7   812.8    0.00 
  58    9:10   0.52   35.6    56    2.4   201     5.1   812.7    0.00 
  58    9:20   0.57   36.0    55    3.8   197     6.2   812.6    0.00 
  58    9:30   0.55   36.2    55    3.9   206     8.1   812.5    0.00 
  58    9:40   0.52   38.1    51    5.0   207     8.0   812.3    0.00 
  58    9:50   0.44   37.1    51    9.6   210    12.9   812.2    0.00 
  58   10:00   0.53   38.1    49    8.9   200    13.4   812.0    0.00 
  58   10:10   0.76   40.1    46    8.5   199    12.9   811.8    0.00 
  58   10:20   0.58   39.5    45    7.4   208    11.8   811.7    0.00 
  58   10:30   0.48   39.6    44    6.6   231    11.8   811.6    0.00 
  58   10:40   0.60   39.6    44    6.7   239    11.3   811.4    0.00 
  58   10:50   0.51   39.7    42    7.5   236    12.1   811.3    0.00 
  58   11:00   0.70   40.5    40    6.7   216    10.2   811.1    0.00 
  58   11:10   0.45   40.7    39    4.6   200     9.3   811.0    0.00 
  58   11:20   0.46   41.2    38    7.0   198    12.2   810.8    0.00 
  58   11:30   0.43   40.7    38    5.6   217    10.7   810.6    0.00 
  58   11:40   0.52   41.1    36    5.6   213    12.8   810.4    0.00 
  58   11:50   0.47   41.4    31    6.8   225    10.0   810.2    0.00 
  58   12:00   0.47   41.4    32    5.4   215    11.0   810.0    0.00 
  58   12:10   0.40   41.9    33    7.1   190    12.6   809.8    0.00 
  58   12:20   0.43   41.4    32    5.6   228    11.2   809.6    0.00 
  58   12:30   0.76   42.7    31    4.5   193    11.0   809.4    0.00 
  58   12:40   0.35   42.4    31    6.6   206    13.4   809.1    0.00 
  58   12:50   0.47   42.2    32    4.4   188     9.6   808.9    0.00 
  58   13:00   0.47   42.1    30    5.3   136     9.3   808.7    0.00 
  58   13:10   0.42   42.1    30    3.6   195    10.8   808.6    0.00 
  58   13:20   0.34   42.7    31    2.4   170     6.8   808.4    0.00 
  58   13:30   0.27   42.5    30    3.6   139     7.2   808.3    0.00 
  58   13:40   0.24   42.8    32    3.8   224     9.2   808.3    0.00 
  58   13:50   0.19   41.2    37   10.0   249    15.0   808.3    0.00 
  58   14:00   0.16   40.2    40   12.1   238    15.5   808.3    0.00 
  58   14:10   0.15   39.8    40    6.5   210    14.2   808.4    0.00 
  58   14:20   0.29   40.3    39    2.8   232    11.1   808.4    0.00 
  58   14:30   0.38   40.1    44   10.1   115    15.0   808.3    0.00 
  58   14:40   0.41   39.9    44    6.9    89    11.5   808.2    0.00 
  58   14:50   0.43   40.7    42    7.8   121    10.5   808.0    0.00 
  58   15:00   0.35   41.4    39    6.2   155    12.9   807.9    0.00 
  58   15:10   0.27   41.1    37    6.3   138    10.7   807.7    0.00 
  58   15:20   0.21   41.3    36    5.1   165     8.3   807.7    0.00 
  58   15:30   0.19   41.5    35    5.9   201     9.4   807.7    0.00 
  58   15:40   0.18   41.1    36    7.9   216    12.9   807.7    0.00 
  58   15:50   0.18   40.6    40    7.4   241    14.2   807.8    0.00 
  58   16:00   0.14   40.4    40    4.7   244     8.6   807.8    0.00 
  58   16:10   0.09   40.0    41    4.5   254     8.0   807.7    0.00 
  58   16:20   0.05   39.7    42    7.8   224    10.7   807.7    0.00 
  58   16:30   0.04   39.5    42    7.2   214     9.9   807.8    0.00 
  58   16:40   0.04   39.0    48   12.8   191    20.9   807.8    0.00 
  58   16:50   0.04   37.8    54   13.5   182    17.5   807.9    0.00 
  58   17:00   0.03   37.1    57   13.0   184    17.8   808.0    0.00 
  58   17:10   0.02   36.7    59   10.8   172    14.4   808.1    0.00 
  58   17:20   0.01   36.5    58   11.6   170    15.6   808.2    0.00 
  58   17:30   0.01   36.4    57    8.3   138    11.5   808.2    0.00 
  58   17:40   0.00   35.7    62    5.7   144    10.2   808.2    0.00 
  58   17:50   0.00   35.8    60    3.7   121     6.3   808.2    0.00 
  58   18:00   0.00   35.9    58    5.7   114     9.5   808.2    0.00 
  58   18:10   0.00   35.4    60    4.1   111     5.9   808.3    0.00 
  58   18:20   0.00   35.3    62    2.8    80     5.0   808.3    0.00 
  58   18:30   0.00   35.1    61    1.8    30     3.4   808.3    0.00 
  58   18:40   0.00   34.5    69    7.2   252    13.5   808.4    0.00 
  58   18:50   0.00   32.5    85    7.9   267    11.5   808.5    0.00 
  58   19:00   0.00   31.8    88    6.4   295     8.6   808.4    0.00 
  58   19:10   0.00   31.7    90    5.9   308     7.8   808.4    0.00 
  58   19:20   0.00   31.5    90    4.7   313     6.3   808.4    0.00 
  58   19:30   0.00   31.4    91    5.1   310     6.4   808.4    0.00 
  58   19:40   0.00   31.4    91    4.3   309     6.2   808.5    0.00 
  58   19:50   0.00   31.4    91    5.0   322     6.3   808.4    0.00 
  58   20:00   0.00   31.3    91    4.6   322     6.1   808.4    0.00 
  58   20:10   0.00   31.2    91    3.1   328     4.5   808.5    0.00 
  58   20:20   0.00   31.1    91    2.5   305     3.4   808.6    0.00 
  58   20:30   0.00   31.2    91    1.7   298     2.9   808.6    0.00 
  58   20:40   0.00   31.5    90    2.0   283     3.1   808.6    0.00 
  58   20:50   0.00   31.5    89    2.6   301     3.9   808.6    0.00 
  58   21:00   0.00   31.1    90    2.1   307     3.6   808.6    0.00 
  58   21:10   0.00   30.5    90    1.4   307     2.2   808.5    0.00 
  58   21:20   0.00   30.3    91    2.5   288     2.8   808.5    0.00 
  58   21:30   0.00   29.6    91    2.9   303     3.5   808.5    0.00 
  58   21:40   0.00   28.9    92    2.2   313     2.9   808.4    0.00 
  58   21:50   0.00   29.1    92    0.5   318     1.8   808.4    0.00 
  58   22:00   0.00   29.4    93    2.5   342     3.6   808.4    0.00 
  58   22:10   0.00   29.8    93    3.9   348     6.2   808.2    0.00 
  58   22:20   0.00   30.4    92    3.0   354     5.6   808.2    0.00 
  58   22:30   0.00   30.8    88    4.6    28     6.3   808.1    0.00 
  58   22:40   0.00   31.5    82    4.8    57     7.9   808.0    0.00 
  58   22:50   0.00   31.4    81    4.4    45     8.3   808.0    0.00 

Return to Steptoe Valley North graphs page.


Western Regional Climate Center,wrcc@dri.edu